Mobile, AL (36612)

6:53 PM CDT on September 02, 2015 (GMT -0500)
Westlawn | | Change Station
CLOSE
Current Station
Personal Weather Station
Location: Mobile, AL
Elevation: 43 ft
Nearby Weather Stations

Elev 43 ft 30.68 °N, 88.12 °W | Updated 2 minutes ago

Partly Cloudy
Partly Cloudy
85.2 °F
Feels Like 96 °F
N
0.0
Wind Variable Wind from WSW
Gusts 2.0 mph

Today
High -- | Low -- °F
--% Chance of Precip.
Yesterday
High -- | Low -- °F
Precip. -- in
6:29 AM 7:14 PM
Waning Gibbous, 76% visible
Pressure 30.00 in
Visibility 10.0 miles
Clouds Few 15000 ft
Mostly Cloudy 25000 ft
Heat Index 96 °F
Dew Point 77 °F
Humidity 76%
Rainfall 0.00 in
Snow Depth Not available.
UV 1 out of 12
Pollen 8.50 out of 12
Air Quality Not available.
Flu Activity Not available.
METAR KMOB 022256Z 24006KT 10SM FEW150 BKN250 29/23 A3001 RMK AO2 SLP158 T02940228
Pressure 30.00 in
Visibility 10.0 miles
Clouds Few 15000 ft
Mostly Cloudy 25000 ft
Heat Index 96 °F
Dew Point 77 °F
Humidity 76%
Rainfall 0.00 in
Snow Depth Not available.
UV 1 out of 12
Pollen 8.50 out of 12
Air Quality Not available.
Flu Activity Not available.
METAR KMOB 022256Z 24006KT 10SM FEW150 BKN250 29/23 A3001 RMK AO2 SLP158 T02940228

10-Day Weather Forecast

×

Almanac

Astronomy

Sep. 02, 2015 Rise Set
Actual Time
Civil Twilight
Nautical Twilight
Astronomical Twilight
Moon
Length of Visible Light
Length of Day
Tomorrow will be .
, % of the Moon is Illuminated

Today's Extremes

State Highs State Lows

Community

WunderPhotos

Upload Photos

1,851,841 photos uploaded!

WunderBlogs® & News

Nearby

Air Quality

  Air Quality AQ Index Pollutant
Not available.

Snow Depth

Station Depth Elevation

Earthquake Activity

City Distance Mag. Time & Date
Minimum magnitude displayed is 2.5.

Coastal Water Temperatures

Place Temperature

Stations

Nearby Weather Stations

Station Location Temp. Windchill Dew Point Humidity Wind Precip. Elev Updated Type